Nearby METAR Reports

 

KMFD - Mansfield, Ohio, USA
Distance from station: E 12mi, 20km
Updated: 10/26/2021 6:52pm
Mostly cloudy
Mostly cloudy
 Wind from NW
Wind: NW 8 mph , 13 km/h
Temperature: 43°F , 6°C
Wind Chill: 38°F , 3°C
Dew Point: 36°F , 2°C
Humidity: 76%
Barometer: 29.97 inHg , 1014.9 hPa
Clouds: Mostly cloudy
Visibility: 10 miles , 16 km
Cloud details: Mostly cloudy 4100 ft
2021/10/26 22:52 KMFD 262252Z 32007KT 10SM BKN041 06/02 A2997 RMK AO2 SLP154 T00610017
KMNN - Marion, Ohio, USA
Distance from station: SW 20mi, 33km
Updated: 10/26/2021 6:53pm
Few Clouds
Few Clouds
 Wind from N
Wind: N 10 mph , 17 km/h
Temperature: 46°F , 8°C
Wind Chill: 41°F , 5°C
Dew Point: 36°F , 2°C
Humidity: 66%
Barometer: 29.98 inHg , 1015.2 hPa
Clouds: Few Clouds
Visibility: 10 miles , 16 km
Cloud details: Few Clouds 4100 ft
2021/10/26 22:53 KMNN 262253Z AUTO 36009KT 10SM FEW041 08/02 A2998 RMK AO2 SLP159 T00830017
 
K4I3 - Mt Vernon/Knox, Ohio, USA
Distance from station: SSE 33mi, 54km
Updated: 10/26/2021 7:35pm
Mostly cloudy
Mostly cloudy
 Wind from NNW
Wind: NNW 6 mph , 9 km/h
Temperature: 45°F , 7°C
Wind Chill: 42°F , 6°C
Dew Point: 36°F , 2°C
Humidity: 71%
Clouds: Mostly cloudy
Visibility: 10 miles , 16 km
Cloud details: Partly cloudy 3700 ft
Mostly cloudy 4400 ft
2021/10/26 23:35 K4I3 262335Z AUTO 33005KT 10SM SCT037 BKN044 07/02 RMK AO2
KDLZ - Delaware, Ohio, USA
Distance from station: SSW 40mi, 64km
Updated: 10/26/2021 7:35pm
Clear
Clear
 Wind from NW
Wind: NW 5 mph , 7 km/h
Temperature: 45°F , 7°C
Wind Chill: 42°F , 6°C
Dew Point: 34°F , 1°C
Humidity: 66%
Barometer: 29.99 inHg , 1015.6 hPa
Clouds: Clear
Visibility: 10 miles , 16 km
2021/10/26 23:35 KDLZ 262335Z AUTO 32004KT 10SM CLR 07/01 A2999 RMK AO2 P0001
 
KBJJ - Wooster, Ohio, USA
Distance from station: E 46mi, 73km
Updated: 10/26/2021 6:56pm
Overcast
Overcast
 Wind from NNW
Wind: NNW 15 mph , 24 km/h
Temperature: 46°F , 8°C
Wind Chill: 40°F , 4°C
Dew Point: 36°F , 2°C
Humidity: 66%
Barometer: 29.95 inHg , 1014.2 hPa
Clouds: Overcast
Visibility: 10 miles , 16 km
Cloud details: Overcast 4300 ft
2021/10/26 22:56 KBJJ 262256Z AUTO 33013KT 10SM OVC043 08/02 A2995 RMK AO2 SLP148 T00780022
KLPR - Lorain/Elyria, Ohio, USA
Distance from station: NE 49mi, 79km
Updated: 10/26/2021 6:53pm
Overcast
Overcast
 Wind from N
Wind: N 13 mph , 20 km/h, Gust: 18 mph , 30 km/h
Temperature: 48°F , 9°C
Wind Chill: 43°F , 6°C
Dew Point: 36°F , 2°C
Humidity: 62%
Barometer: 29.97 inHg , 1014.9 hPa
Clouds: Overcast
Visibility: 10 miles , 16 km
Cloud details: Overcast 3800 ft
2021/10/26 22:53 KLPR 262253Z AUTO 35011G16KT 10SM OVC038 09/02 A2997 RMK AO2 SLP152 T00890022